createdAt,value
2022-08-05T00:00:16.251Z,17.27
2022-08-05T00:03:15.546Z,17.24
2022-08-05T00:06:29.205Z,17.21
2022-08-05T00:09:19.663Z,17.17
2022-08-05T00:12:09.360Z,17.15
2022-08-05T00:15:54.436Z,17.15
2022-08-05T00:18:21.505Z,17.13
2022-08-05T00:21:12.488Z,17.10
2022-08-05T00:24:10.779Z,17.08
2022-08-05T00:27:00.679Z,17.09
2022-08-05T00:29:53.737Z,17.09
2022-08-05T00:32:45.759Z,17.07
2022-08-05T00:35:36.044Z,17.12
2022-08-05T00:38:39.144Z,17.21
2022-08-05T00:41:51.675Z,17.23
2022-08-05T00:44:40.204Z,17.19
2022-08-05T00:47:56.213Z,17.14
2022-08-05T00:50:46.131Z,17.11
2022-08-05T00:54:01.188Z,17.14
2022-08-05T00:56:47.089Z,17.23
2022-08-05T00:59:44.350Z,17.24
2022-08-05T01:02:33.362Z,17.24
2022-08-05T01:05:21.321Z,17.19
2022-08-05T01:08:40.291Z,17.06
2022-08-05T01:11:36.712Z,16.94
2022-08-05T01:14:33.751Z,16.88
2022-08-05T01:17:27.298Z,16.86
2022-08-05T01:20:29.773Z,16.79
2022-08-05T01:23:34.747Z,16.71
2022-08-05T01:26:39.975Z,16.68
2022-08-05T01:29:38.991Z,16.65
2022-08-05T01:32:35.865Z,16.61
2022-08-05T01:35:51.318Z,16.58
2022-08-05T01:38:42.771Z,16.58
2022-08-05T01:41:35.360Z,16.57
2022-08-05T01:44:34.221Z,16.52
2022-08-05T01:47:24.247Z,16.49
2022-08-05T01:50:28.530Z,16.49
2022-08-05T01:53:55.053Z,16.48
2022-08-05T01:58:12.462Z,16.46
2022-08-05T01:59:47.226Z,16.44
2022-08-05T02:02:38.944Z,16.42
2022-08-05T02:05:43.214Z,16.39
2022-08-05T02:08:40.850Z,16.38
2022-08-05T02:11:52.268Z,16.46
2022-08-05T02:14:47.929Z,16.60
2022-08-05T02:18:30.688Z,16.66
2022-08-05T02:21:02.496Z,16.65
2022-08-05T02:23:56.299Z,16.65
2022-08-05T02:26:55.003Z,16.66
2022-08-05T02:29:59.599Z,16.61
2022-08-05T02:32:55.582Z,16.55
2022-08-05T02:35:56.331Z,16.52
2022-08-05T02:38:38.799Z,16.57
2022-08-05T02:41:43.380Z,16.60
2022-08-05T02:44:39.545Z,16.57
2022-08-05T02:47:58.674Z,16.54
2022-08-05T02:50:43.557Z,16.48
2022-08-05T02:53:39.267Z,16.44
2022-08-05T02:56:29.079Z,16.39
2022-08-05T02:59:22.398Z,16.31
2022-08-05T03:02:19.789Z,16.27
2022-08-05T03:06:55.284Z,16.33
2022-08-05T03:08:37.345Z,16.36
2022-08-05T03:11:57.228Z,16.36
2022-08-05T03:14:46.122Z,16.34
2022-08-05T03:17:41.484Z,16.31
2022-08-05T03:20:31.264Z,16.31
2022-08-05T03:23:24.202Z,16.29
2022-08-05T03:26:31.568Z,16.22
2022-08-05T03:29:21.738Z,16.20
2022-08-05T03:32:15.386Z,16.22
2022-08-05T03:35:08.899Z,16.24
2022-08-05T03:37:58.467Z,16.25
2022-08-05T03:40:48.808Z,16.23
2022-08-05T03:44:09.269Z,16.21
2022-08-05T03:46:46.746Z,16.22
2022-08-05T03:49:51.660Z,16.22
2022-08-05T03:55:52.466Z,16.25
2022-08-05T03:56:17.234Z,16.27
2022-08-05T03:59:20.485Z,16.27
2022-08-05T04:02:17.436Z,16.27
2022-08-05T04:05:23.079Z,16.28
2022-08-05T04:08:29.954Z,16.31
2022-08-05T04:11:21.853Z,16.37
2022-08-05T04:14:18.120Z,16.46
2022-08-05T04:17:09.616Z,16.54
2022-08-05T04:20:00.207Z,16.67
2022-08-05T04:22:53.726Z,16.83
2022-08-05T04:25:57.129Z,17.00
2022-08-05T04:28:51.015Z,17.17
2022-08-05T04:31:40.849Z,17.33
2022-08-05T04:34:33.603Z,17.45
2022-08-05T04:37:31.506Z,17.58
2022-08-05T04:40:35.146Z,17.74
2022-08-05T04:43:23.811Z,17.91
2022-08-05T04:46:27.877Z,18.05
2022-08-05T04:49:17.186Z,18.21
2022-08-05T04:52:13.501Z,18.37
2022-08-05T04:55:09.604Z,18.53
2022-08-05T04:58:05.421Z,18.72
2022-08-05T05:01:01.343Z,18.90
2022-08-05T05:03:50.580Z,19.10
2022-08-05T05:06:44.403Z,19.27
2022-08-05T05:09:33.964Z,19.48
2022-08-05T05:12:27.312Z,19.66
2022-08-05T05:15:17.517Z,19.86
2022-08-05T05:18:31.441Z,20.07
2022-08-05T05:21:22.687Z,20.33
2022-08-05T05:24:17.706Z,20.92
2022-08-05T05:27:08.424Z,21.95
2022-08-05T05:30:04.100Z,23.03
2022-08-05T05:32:53.891Z,23.93
2022-08-05T05:35:43.004Z,24.27
2022-08-05T05:38:33.402Z,24.45
2022-08-05T05:41:22.255Z,24.42
2022-08-05T05:44:36.078Z,24.29
2022-08-05T05:47:30.576Z,24.36
2022-08-05T05:50:30.966Z,24.63
2022-08-05T05:53:21.235Z,24.67
2022-08-05T05:56:11.462Z,24.51
2022-08-05T05:59:03.275Z,24.40
2022-08-05T06:01:57.235Z,24.22
2022-08-05T06:04:49.278Z,23.96
2022-08-05T06:07:42.945Z,23.79
2022-08-05T06:10:52.844Z,23.62
2022-08-05T06:13:50.486Z,23.48
2022-08-05T06:16:42.904Z,23.43
2022-08-05T06:19:35.578Z,23.35
2022-08-05T06:22:26.270Z,23.30
2022-08-05T06:25:59.302Z,23.30
2022-08-05T06:28:24.021Z,23.34
2022-08-05T06:31:17.648Z,23.41
2022-08-05T06:34:08.910Z,23.49
2022-08-05T06:36:58.743Z,23.57
2022-08-05T06:39:48.801Z,23.66
2022-08-05T06:42:39.950Z,23.74
2022-08-05T06:46:02.844Z,23.82
2022-08-05T06:48:56.418Z,23.89
2022-08-05T06:51:46.979Z,23.97
2022-08-05T06:54:36.052Z,24.05
2022-08-05T06:57:57.340Z,24.11
2022-08-05T07:00:33.883Z,24.18
2022-08-05T07:03:32.448Z,24.24
2022-08-05T07:06:22.863Z,24.31
2022-08-05T07:09:11.827Z,24.39
2022-08-05T07:12:03.080Z,24.49
2022-08-05T07:15:12.436Z,24.58
2022-08-05T07:18:29.061Z,24.70
2022-08-05T07:21:11.586Z,24.81
2022-08-05T07:24:01.313Z,24.93
2022-08-05T07:26:51.328Z,25.05
2022-08-05T07:30:22.884Z,25.19
2022-08-05T07:32:39.817Z,25.35
2022-08-05T07:36:04.264Z,25.46
2022-08-05T07:38:33.445Z,25.53
2022-08-05T07:42:14.039Z,25.61
2022-08-05T07:44:36.639Z,25.67
2022-08-05T07:47:25.749Z,25.73
2022-08-05T07:50:16.629Z,25.80
2022-08-05T07:53:08.606Z,25.87
2022-08-05T07:56:06.596Z,25.94
2022-08-05T07:59:11.189Z,26.03
2022-08-05T08:02:03.358Z,26.14
2022-08-05T08:04:56.250Z,26.25
2022-08-05T08:08:00.274Z,26.34
2022-08-05T08:10:49.605Z,26.41
2022-08-05T08:13:49.396Z,26.46
2022-08-05T08:16:53.518Z,26.51
2022-08-05T08:20:43.615Z,26.60
2022-08-05T08:22:52.898Z,26.66
2022-08-05T08:25:59.929Z,26.73
2022-08-05T08:28:59.455Z,26.87
2022-08-05T08:31:51.949Z,26.98
2022-08-05T08:34:41.166Z,27.06
2022-08-05T08:37:31.028Z,27.13
2022-08-05T08:40:28.714Z,27.28
2022-08-05T08:45:22.360Z,27.42
2022-08-05T08:46:31.889Z,27.55
2022-08-05T08:50:05.841Z,27.70
2022-08-05T08:52:34.451Z,27.89
2022-08-05T08:56:02.913Z,28.08
2022-08-05T08:58:44.037Z,28.35
2022-08-05T09:01:42.652Z,28.63
2022-08-05T09:04:33.289Z,28.97
2022-08-05T09:07:55.996Z,29.30
2022-08-05T09:10:46.851Z,29.58
2022-08-05T09:14:01.089Z,29.84
2022-08-05T09:16:48.700Z,30.30
2022-08-05T09:20:01.522Z,30.68
2022-08-05T09:23:19.568Z,31.05
2022-08-05T09:26:11.079Z,31.46
2022-08-05T09:29:09.544Z,31.64
2022-08-05T09:32:40.057Z,31.78
2022-08-05T09:35:26.757Z,31.80
2022-08-05T09:38:27.593Z,32.00
2022-08-05T09:41:18.677Z,32.20
2022-08-05T09:44:07.909Z,32.38
2022-08-05T09:47:10.389Z,32.45
2022-08-05T09:50:06.233Z,32.72
2022-08-05T09:52:58.720Z,33.00
2022-08-05T09:55:56.108Z,33.30
2022-08-05T09:59:00.935Z,33.29
2022-08-05T10:01:47.930Z,33.17
2022-08-05T10:04:47.880Z,33.02
2022-08-05T10:08:36.107Z,32.90
2022-08-05T10:10:59.086Z,32.96
2022-08-05T10:13:49.340Z,33.11
2022-08-05T10:16:41.892Z,33.28
2022-08-05T10:20:04.447Z,33.27
2022-08-05T10:22:51.875Z,33.18
2022-08-05T10:25:41.818Z,33.09
2022-08-05T10:28:36.610Z,32.88
2022-08-05T10:32:51.473Z,32.81
2022-08-05T10:34:36.059Z,32.80
2022-08-05T10:37:40.073Z,33.05
2022-08-05T10:40:38.976Z,33.24
2022-08-05T10:43:42.610Z,33.40
2022-08-05T10:46:46.407Z,33.32
2022-08-05T10:50:31.660Z,33.44
2022-08-05T10:53:34.004Z,33.58
2022-08-05T10:56:28.739Z,33.73
2022-08-05T11:00:03.553Z,33.86
2022-08-05T11:02:37.550Z,34.01
2022-08-05T11:05:31.673Z,33.86
2022-08-05T11:08:34.305Z,33.64
2022-08-05T11:11:52.095Z,33.78
2022-08-05T11:17:59.813Z,34.21
2022-08-05T11:20:50.897Z,34.31
2022-08-05T11:24:04.139Z,34.19
2022-08-05T11:27:51.014Z,34.21
2022-08-05T11:31:12.016Z,34.09
2022-08-05T11:34:36.871Z,34.10
2022-08-05T11:38:29.411Z,34.23
2022-08-05T11:41:56.235Z,34.42
2022-08-05T11:44:52.865Z,34.62
2022-08-05T11:47:48.997Z,34.77
2022-08-05T11:50:41.287Z,34.89
2022-08-05T11:53:33.747Z,34.87
2022-08-05T11:56:50.414Z,34.79
2022-08-05T11:59:49.782Z,34.76
2022-08-05T12:02:39.998Z,34.73
2022-08-05T12:05:36.460Z,34.58
2022-08-05T12:08:22.330Z,34.55
2022-08-05T12:11:20.523Z,34.58
2022-08-05T12:14:10.215Z,34.52
2022-08-05T12:18:00.708Z,34.37
2022-08-05T12:20:25.399Z,34.43
2022-08-05T12:23:17.648Z,34.47
2022-08-05T12:26:09.297Z,34.39
2022-08-05T12:28:58.104Z,34.15
2022-08-05T12:31:53.218Z,34.08
2022-08-05T12:34:43.850Z,34.14
2022-08-05T12:37:38.288Z,34.05
2022-08-05T12:40:30.057Z,33.84
2022-08-05T12:43:21.077Z,33.80
2022-08-05T12:46:03.312Z,33.74
2022-08-05T12:49:13.442Z,33.93
2022-08-05T12:52:12.355Z,34.19
2022-08-05T12:55:21.759Z,34.31
2022-08-05T12:58:48.951Z,34.30
2022-08-05T13:02:00.556Z,34.38
2022-08-05T13:04:52.594Z,34.29
2022-08-05T13:08:01.602Z,34.29
2022-08-05T13:10:51.594Z,34.23
2022-08-05T13:14:05.714Z,34.20
2022-08-05T13:16:56.643Z,34.23
2022-08-05T13:20:00.228Z,34.28
2022-08-05T13:22:52.168Z,34.21
2022-08-05T13:25:58.607Z,34.12
2022-08-05T13:28:48.828Z,34.21
2022-08-05T13:32:04.569Z,34.14
2022-08-05T13:34:52.617Z,34.14
2022-08-05T13:37:41.653Z,34.14
2022-08-05T13:40:51.880Z,33.99
2022-08-05T13:43:44.791Z,33.94
2022-08-05T13:47:02.371Z,33.91
2022-08-05T13:49:53.568Z,33.90
2022-08-05T13:52:42.260Z,33.70
2022-08-05T13:55:41.503Z,33.56
2022-08-05T13:58:38.361Z,33.48
2022-08-05T14:01:36.384Z,33.40
2022-08-05T14:05:00.576Z,33.28
2022-08-05T14:07:59.945Z,33.17
2022-08-05T14:11:08.063Z,33.25
2022-08-05T14:14:08.211Z,33.27
2022-08-05T14:16:57.524Z,33.36
2022-08-05T14:19:55.983Z,33.47
2022-08-05T14:22:50.086Z,33.54
2022-08-05T14:25:32.405Z,33.51
2022-08-05T14:28:26.970Z,33.47
2022-08-05T14:31:17.226Z,33.46
2022-08-05T14:34:18.544Z,33.47
2022-08-05T14:37:13.353Z,33.38
2022-08-05T14:40:03.355Z,33.24
2022-08-05T14:42:53.072Z,33.15
2022-08-05T14:45:41.729Z,33.02
2022-08-05T14:48:33.486Z,32.88
2022-08-05T14:51:23.285Z,32.81
2022-08-05T14:54:28.082Z,32.76
2022-08-05T14:57:19.256Z,32.63
2022-08-05T15:00:11.564Z,32.44
2022-08-05T15:03:06.820Z,32.25
2022-08-05T15:06:08.098Z,32.14
2022-08-05T15:09:03.653Z,31.97
2022-08-05T15:11:53.718Z,31.83
2022-08-05T15:14:49.660Z,31.80
2022-08-05T15:17:45.582Z,31.76
2022-08-05T15:20:36.683Z,31.74
2022-08-05T15:23:25.507Z,31.75
2022-08-05T15:26:17.010Z,31.69
2022-08-05T15:29:21.299Z,31.60
2022-08-05T15:32:11.217Z,31.55
2022-08-05T15:35:10.004Z,31.56
2022-08-05T15:38:09.094Z,31.50
2022-08-05T15:41:22.398Z,31.44
2022-08-05T15:44:12.992Z,31.37
2022-08-05T15:47:03.127Z,31.34
2022-08-05T15:49:58.743Z,31.29
2022-08-05T15:52:53.715Z,31.24
2022-08-05T15:56:02.265Z,31.20
2022-08-05T15:58:53.150Z,31.14
2022-08-05T16:01:52.867Z,31.09
2022-08-05T16:04:43.296Z,31.04
2022-08-05T16:07:36.828Z,30.98
2022-08-05T16:10:28.787Z,30.94
2022-08-05T16:13:23.629Z,30.91
2022-08-05T16:16:14.771Z,30.89
2022-08-05T16:19:11.660Z,30.84
2022-08-05T16:22:10.798Z,30.79
2022-08-05T16:25:05.344Z,30.76
2022-08-05T16:28:04.975Z,30.75
2022-08-05T16:30:55.169Z,30.70
2022-08-05T16:33:45.242Z,30.65
2022-08-05T16:36:34.513Z,30.62
2022-08-05T16:40:05.267Z,30.58
2022-08-05T16:42:35.755Z,30.53
2022-08-05T16:46:06.703Z,30.49
2022-08-05T16:48:37.361Z,30.42
2022-08-05T16:51:30.814Z,30.35
2022-08-05T16:54:33.167Z,30.31
2022-08-05T16:57:30.135Z,30.25
2022-08-05T17:00:37.624Z,30.17
2022-08-05T17:03:27.097Z,30.06
2022-08-05T17:06:16.922Z,29.94
2022-08-05T17:08:58.048Z,29.80
2022-08-05T17:11:48.761Z,29.72
2022-08-05T17:14:39.154Z,29.62
2022-08-05T17:17:42.622Z,29.56
2022-08-05T17:20:26.726Z,29.42
2022-08-05T17:24:03.409Z,29.25
2022-08-05T17:26:23.635Z,29.14
2022-08-05T17:29:12.479Z,29.02
2022-08-05T17:32:02.437Z,28.89
2022-08-05T17:34:51.434Z,28.74
2022-08-05T17:37:45.409Z,28.56
2022-08-05T17:40:37.176Z,28.36
2022-08-05T17:43:50.670Z,28.17
2022-08-05T17:46:19.771Z,27.98
2022-08-05T17:49:09.822Z,27.80
2022-08-05T17:51:58.769Z,27.62
2022-08-05T17:54:52.191Z,27.45
2022-08-05T17:57:43.558Z,27.29
2022-08-05T18:00:40.908Z,27.13
2022-08-05T18:03:58.931Z,26.99
2022-08-05T18:06:52.655Z,26.86
2022-08-05T18:09:58.860Z,26.73
2022-08-05T18:12:31.517Z,26.60
2022-08-05T18:15:23.780Z,26.46
2022-08-05T18:18:13.372Z,26.32
2022-08-05T18:21:02.603Z,26.20
2022-08-05T18:23:53.636Z,26.07
2022-08-05T18:26:43.829Z,25.95
2022-08-05T18:29:40.950Z,25.82
2022-08-05T18:32:30.701Z,25.69
2022-08-05T18:35:28.273Z,25.55
2022-08-05T18:38:26.201Z,25.40
2022-08-05T18:41:56.591Z,25.28
2022-08-05T18:44:35.064Z,25.19
2022-08-05T18:47:26.818Z,25.13
2022-08-05T18:50:42.393Z,25.05
2022-08-05T18:53:35.033Z,24.94
2022-08-05T18:56:34.817Z,24.83
2022-08-05T18:59:43.183Z,24.73
2022-08-05T19:02:34.230Z,24.61
2022-08-05T19:06:12.600Z,24.48
2022-08-05T19:08:35.005Z,24.36
2022-08-05T19:11:28.619Z,24.27
2022-08-05T19:14:38.043Z,24.20
2022-08-05T19:18:08.050Z,24.12
2022-08-05T19:20:47.005Z,24.03
2022-08-05T19:24:07.162Z,23.97
2022-08-05T19:26:55.443Z,23.91
2022-08-05T19:29:44.547Z,23.84
2022-08-05T19:32:41.850Z,23.75
2022-08-05T19:35:56.736Z,23.65
2022-08-05T19:38:40.917Z,23.54
2022-08-05T19:41:58.337Z,23.45
2022-08-05T19:44:45.342Z,23.37
2022-08-05T19:47:40.174Z,23.32
2022-08-05T19:50:30.671Z,23.30
2022-08-05T19:54:05.380Z,23.29
2022-08-05T19:56:32.668Z,23.27
2022-08-05T19:59:56.020Z,23.25
2022-08-05T20:02:36.272Z,23.28
2022-08-05T20:05:25.851Z,23.30
2022-08-05T20:08:32.363Z,23.25
2022-08-05T20:11:23.447Z,23.13
2022-08-05T20:14:11.922Z,23.04
2022-08-05T20:17:06.246Z,22.98
2022-08-05T20:19:57.408Z,22.94
2022-08-05T20:22:46.822Z,22.90
2022-08-05T20:25:39.887Z,22.89
2022-08-05T20:28:29.130Z,22.81
2022-08-05T20:31:21.706Z,22.73
2022-08-05T20:34:17.575Z,22.66
2022-08-05T20:37:24.140Z,22.59
2022-08-05T20:40:18.672Z,22.53
2022-08-05T20:43:08.821Z,22.49
2022-08-05T20:45:57.655Z,22.48
2022-08-05T20:48:51.183Z,22.45
2022-08-05T20:51:40.284Z,22.44
2022-08-05T20:54:20.290Z,22.43
2022-08-05T20:57:09.506Z,22.43
2022-08-05T21:00:19.638Z,22.40
2022-08-05T21:03:16.747Z,22.37
2022-08-05T21:06:27.781Z,22.35
2022-08-05T21:09:16.935Z,22.30
2022-08-05T21:12:10.655Z,22.24
2022-08-05T21:15:00.377Z,22.17
2022-08-05T21:17:49.372Z,22.14
2022-08-05T21:20:39.599Z,22.12
2022-08-05T21:23:28.702Z,22.10
2022-08-05T21:26:26.362Z,22.10
2022-08-05T21:29:18.540Z,22.09
2022-08-05T21:32:08.402Z,22.11
2022-08-05T21:35:17.542Z,22.15
2022-08-05T21:38:08.124Z,22.20
2022-08-05T21:40:57.272Z,22.25
2022-08-05T21:43:50.754Z,22.23
2022-08-05T21:46:50.406Z,22.19
2022-08-05T21:49:58.770Z,22.17
2022-08-05T21:52:49.279Z,22.12
2022-08-05T21:56:01.497Z,22.07
2022-08-05T21:58:57.223Z,21.98
2022-08-05T22:01:46.494Z,21.90
2022-08-05T22:04:35.792Z,21.79
2022-08-05T22:07:54.218Z,21.72
2022-08-05T22:10:34.294Z,21.66
2022-08-05T22:14:19.920Z,21.58
2022-08-05T22:16:51.905Z,21.49
2022-08-05T22:20:00.724Z,21.39
2022-08-05T22:23:17.177Z,21.32
2022-08-05T22:26:28.429Z,21.26
2022-08-05T22:29:18.974Z,21.22
2022-08-05T22:32:17.370Z,21.16
2022-08-05T22:35:12.788Z,21.09
2022-08-05T22:38:01.933Z,21.03
2022-08-05T22:40:55.221Z,20.98
2022-08-05T22:43:44.497Z,20.98
2022-08-05T22:46:34.186Z,20.96
2022-08-05T22:50:22.865Z,20.94
2022-08-05T22:52:38.058Z,20.91
2022-08-05T22:55:27.276Z,20.87
2022-08-05T22:58:28.569Z,20.84
2022-08-05T23:01:17.507Z,20.83
2022-08-05T23:04:09.497Z,20.82
2022-08-05T23:06:59.478Z,20.79
2022-08-05T23:09:57.806Z,20.74
2022-08-05T23:12:55.574Z,20.69
2022-08-05T23:15:45.949Z,20.68
2022-08-05T23:18:39.082Z,20.67
2022-08-05T23:21:42.568Z,20.64
2022-08-05T23:24:36.660Z,20.60
2022-08-05T23:27:28.943Z,20.56
2022-08-05T23:30:20.943Z,20.54
2022-08-05T23:33:25.801Z,20.53
2022-08-05T23:36:15.378Z,20.55
2022-08-05T23:39:06.137Z,20.61
2022-08-05T23:41:56.495Z,20.63
2022-08-05T23:44:45.615Z,20.64
2022-08-05T23:47:48.373Z,20.61
2022-08-05T23:50:40.401Z,20.60
2022-08-05T23:53:46.997Z,20.64
2022-08-05T23:56:36.010Z,20.67
2022-08-05T23:59:27.595Z,20.70
